Time;durP1;ratioP1;P1;durP2;ratioP2;P2;SDS_P1;SDS_P2;PMS_P1;PMS_P2;Temp;Humidity;BMP_temperature;BMP_pressure;BME280_temperature;BME280_humidity;BME280_pressure;Samples;Min_cycle;Max_cycle;Signal;HPM_P1;HPM_P2
2022/04/15 00:04:27;;;;;;;;;;;10.90;99.90;;;;;;10374208;28;84416;-57
2022/04/15 00:09:30;;;;;;;;;;;10.90;99.90;;;;;;10372865;28;84715;-58
2022/04/15 00:14:30;;;;;;;;;;;10.80;99.90;;;;;;10372962;28;84889;-57
2022/04/15 00:19:31;;;;;;;;;;;10.70;99.90;;;;;;10373323;28;85013;-56
2022/04/15 00:24:31;;;;;;;;;;;10.60;99.90;;;;;;10372286;28;84110;-55
2022/04/15 00:29:32;;;;;;;;;;;10.60;99.90;;;;;;10339881;28;87532;-54
2022/04/15 00:34:34;;;;;;;;;;;10.50;99.90;;;;;;10373305;28;84176;-56
2022/04/15 00:39:35;;;;;;;;;;;10.40;99.90;;;;;;10371746;28;84169;-54
2022/04/15 00:44:36;;;;;;;;;;;10.40;99.90;;;;;;10354387;28;85950;-57
2022/04/15 00:49:36;;;;;;;;;;;10.30;99.90;;;;;;10371625;28;84050;-57
2022/04/15 00:54:38;;;;;;;;;;;10.20;99.90;;;;;;10372659;28;84946;-57
2022/04/15 00:59:38;;;;;;;;;;;10.10;99.90;;;;;;10370668;28;84932;-57
2022/04/15 01:04:40;;;;;;;;;;;10.10;99.90;;;;;;10354304;28;87188;-55
2022/04/15 01:09:43;;;;;;;;;;;10.10;99.90;;;;;;10372463;28;84183;-57
2022/04/15 01:14:44;;;;;;;;;;;10.00;99.90;;;;;;10373263;28;84695;-57
2022/04/15 01:19:45;;;;;;;;;;;9.90;99.90;;;;;;10354327;28;86266;-57
2022/04/15 01:24:45;;;;;;;;;;;9.90;99.90;;;;;;10370335;28;85135;-57
2022/04/15 01:29:46;;;;;;;;;;;9.80;99.90;;;;;;10370353;28;84252;-57
2022/04/15 01:34:46;;;;;;;;;;;9.80;99.90;;;;;;10371153;28;85043;-56
2022/04/15 01:39:47;;;;;;;;;;;9.90;99.90;;;;;;10369834;28;84899;-57
2022/04/15 01:44:48;;;;;;;;;;;9.90;99.90;;;;;;10370362;28;84160;-56
2022/04/15 01:49:48;;;;;;;;;;;9.90;99.90;;;;;;10369377;28;84831;-56
2022/04/15 01:54:49;;;;;;;;;;;10.00;99.90;;;;;;10369635;28;84927;-56
2022/04/15 01:59:49;;;;;;;;;;;10.00;99.90;;;;;;10369152;28;84134;-56
2022/04/15 02:04:51;;;;;;;;;;;9.90;99.90;;;;;;10369406;28;84747;-57
2022/04/15 02:09:52;;;;;;;;;;;9.90;99.90;;;;;;10350342;28;86297;-54
2022/04/15 02:14:52;;;;;;;;;;;9.80;99.90;;;;;;10369748;28;84071;-55
2022/04/15 02:19:53;;;;;;;;;;;9.80;99.90;;;;;;10368928;28;84035;-57
2022/04/15 02:24:53;;;;;;;;;;;9.70;99.90;;;;;;10386870;22;87175;-44
2022/04/15 02:29:54;;;;;;;;;;;9.60;99.90;;;;;;10408350;28;84085;-45
2022/04/15 02:34:54;;;;;;;;;;;9.60;99.90;;;;;;10387041;28;85419;-48
2022/04/15 02:39:55;;;;;;;;;;;9.50;99.90;;;;;;10352804;28;87405;-48
2022/04/15 02:44:56;;;;;;;;;;;9.50;99.90;;;;;;10332758;28;84170;-50
2022/04/15 02:49:56;;;;;;;;;;;9.40;99.90;;;;;;10348744;28;85147;-45
2022/04/15 02:54:57;;;;;;;;;;;9.40;99.90;;;;;;10370945;28;84276;-47
2022/04/15 02:59:58;;;;;;;;;;;9.50;99.90;;;;;;10313292;28;85025;-46
2022/04/15 03:04:59;;;;;;;;;;;9.40;99.90;;;;;;10332093;28;84030;-50
2022/04/15 03:09:59;;;;;;;;;;;9.40;99.90;;;;;;10331844;28;84862;-45
2022/04/15 03:15:00;;;;;;;;;;;9.40;99.90;;;;;;10340797;28;84771;-47
2022/04/15 03:20:02;;;;;;;;;;;9.30;99.90;;;;;;10364270;28;84881;-45
2022/04/15 03:25:04;;;;;;;;;;;9.10;99.90;;;;;;10331700;28;86091;-48
2022/04/15 03:30:05;;;;;;;;;;;9.00;99.90;;;;;;10372115;28;84210;-42
2022/04/15 03:35:05;;;;;;;;;;;8.90;99.90;;;;;;10372018;28;85256;-44
2022/04/15 03:40:06;;;;;;;;;;;8.90;99.90;;;;;;10371285;28;84514;-45
2022/04/15 03:45:07;;;;;;;;;;;9.00;99.90;;;;;;10371703;28;84242;-51
2022/04/15 03:50:08;;;;;;;;;;;9.00;99.90;;;;;;10372624;28;85005;-45
2022/04/15 03:55:10;;;;;;;;;;;9.00;99.90;;;;;;10370366;28;84779;-45
2022/04/15 04:00:12;;;;;;;;;;;9.00;99.90;;;;;;10370948;28;84097;-46
2022/04/15 04:05:15;;;;;;;;;;;9.10;99.90;;;;;;10371521;28;84885;-50
2022/04/15 04:10:16;;;;;;;;;;;9.10;99.90;;;;;;10337273;28;84228;-44
2022/04/15 04:15:17;;;;;;;;;;;9.10;99.90;;;;;;10329020;28;84927;-43
2022/04/15 04:20:18;;;;;;;;;;;9.10;99.90;;;;;;10329545;28;84679;-44
2022/04/15 04:25:18;;;;;;;;;;;9.20;99.90;;;;;;10328856;28;84269;-43
2022/04/15 04:30:19;;;;;;;;;;;9.10;99.90;;;;;;10328686;28;84700;-50
2022/04/15 04:35:20;;;;;;;;;;;9.10;99.90;;;;;;10311306;28;86855;-47
2022/04/15 04:40:21;;;;;;;;;;;9.00;99.90;;;;;;10329392;28;84275;-46
2022/04/15 04:45:21;;;;;;;;;;;9.10;99.90;;;;;;10329169;28;84303;-42
2022/04/15 04:50:22;;;;;;;;;;;9.10;99.90;;;;;;10314142;28;86346;-50
2022/04/15 04:55:23;;;;;;;;;;;8.90;98.40;;;;;;10330026;28;84198;-43
2022/04/15 05:00:23;;;;;;;;;;;9.00;99.90;;;;;;10369470;28;84861;-49
2022/04/15 05:05:24;;;;;;;;;;;9.00;90.80;;;;;;10370233;28;84220;-43
2022/04/15 05:10:24;;;;;;;;;;;9.10;91.50;;;;;;10351765;28;85708;-49
2022/04/15 05:15:25;;;;;;;;;;;9.10;50.00;;;;;;10338418;28;84210;-47
2022/04/15 05:20:25;;;;;;;;;;;9.00;31.70;;;;;;10309976;28;86905;-47
2022/04/15 05:25:26;;;;;;;;;;;9.00;31.20;;;;;;10327484;28;84958;-51
2022/04/15 05:30:26;;;;;;;;;;;9.00;40.00;;;;;;10345449;28;84946;-45
2022/04/15 05:35:27;;;;;;;;;;;9.00;35.80;;;;;;10368967;28;84941;-44
2022/04/15 05:40:28;;;;;;;;;;;9.10;37.60;;;;;;10351171;28;85915;-47
2022/04/15 05:45:28;;;;;;;;;;;9.20;29.90;;;;;;10360809;28;83955;-45
2022/04/15 05:50:29;;;;;;;;;;;9.20;15.10;;;;;;10328406;28;84705;-46
2022/04/15 05:55:29;;;;;;;;;;;9.30;27.40;;;;;;10327694;28;84482;-53
2022/04/15 06:00:30;;;;;;;;;;;9.30;31.00;;;;;;10327919;28;84063;-45
2022/04/15 06:05:31;;;;;;;;;;;9.20;85.00;;;;;;10325728;28;86420;-48
2022/04/15 06:10:31;;;;;;;;;;;9.30;95.00;;;;;;10360190;28;85017;-45
2022/04/15 06:15:32;;;;;;;;;;;9.40;95.20;;;;;;10349868;28;84891;-45
2022/04/15 06:20:34;;;;;;;;;;;9.40;84.60;;;;;;10369380;28;85128;-48
2022/04/15 06:25:35;;;;;;;;;;;9.40;99.90;;;;;;10366332;28;84910;-49
2022/04/15 06:30:35;;;;;;;;;;;9.40;99.90;;;;;;10368189;28;84135;-47
2022/04/15 06:35:36;;;;;;;;;;;9.40;99.90;;;;;;10367633;28;84837;-45
2022/04/15 06:40:38;;;;;;;;;;;9.30;99.90;;;;;;10366343;28;84098;-44
2022/04/15 06:45:38;;;;;;;;;;;9.40;99.90;;;;;;10348994;28;85024;-44
2022/04/15 06:50:39;;;;;;;;;;;9.40;99.90;;;;;;10367695;28;85094;-48
2022/04/15 06:55:40;;;;;;;;;;;9.40;99.90;;;;;;10348408;28;86156;-45
2022/04/15 07:00:40;;;;;;;;;;;9.40;99.90;;;;;;10307272;28;86208;-42
2022/04/15 07:05:41;;;;;;;;;;;9.30;99.90;;;;;;10325214;28;88266;-48
2022/04/15 07:10:41;;;;;;;;;;;9.30;99.90;;;;;;10326148;28;84674;-47
2022/04/15 07:15:42;;;;;;;;;;;9.40;99.90;;;;;;10352491;28;84781;-48
2022/04/15 07:20:42;;;;;;;;;;;9.50;99.90;;;;;;10368871;28;84100;-45
2022/04/15 07:25:43;;;;;;;;;;;9.50;99.90;;;;;;10372778;28;84373;-46
2022/04/15 07:30:43;;;;;;;;;;;9.50;99.90;;;;;;10353691;28;85083;-46
2022/04/15 07:35:44;;;;;;;;;;;9.50;99.90;;;;;;10372551;28;86490;-49
2022/04/15 07:40:44;;;;;;;;;;;9.50;99.90;;;;;;10373580;28;85167;-48
2022/04/15 07:45:45;;;;;;;;;;;9.50;99.90;;;;;;10369401;28;85700;-50
2022/04/15 07:50:46;;;;;;;;;;;9.60;99.90;;;;;;10313857;28;86593;-48
2022/04/15 07:55:47;;;;;;;;;;;9.80;99.90;;;;;;10359078;28;84113;-49
2022/04/15 08:00:47;;;;;;;;;;;10.00;43.70;;;;;;10355433;28;84201;-44
2022/04/15 08:05:48;;;;;;;;;;;9.90;25.50;;;;;;10369862;28;84894;-50
2022/04/15 08:10:50;;;;;;;;;;;10.00;8.30;;;;;;10372450;28;84878;-49
2022/04/15 08:15:53;;;;;;;;;;;10.10;1.00;;;;;;10369830;28;84782;-47
2022/04/15 08:20:56;;;;;;;;;;;10.30;1.00;;;;;;10313256;28;84884;-46
2022/04/15 08:25:56;;;;;;;;;;;10.20;1.00;;;;;;10400247;22;84223;-46
2022/04/15 08:30:57;;;;;;;;;;;10.10;25.30;;;;;;10393860;28;85429;-46
2022/04/15 08:35:57;;;;;;;;;;;10.20;17.60;;;;;;10381820;28;85107;-47
2022/04/15 08:40:58;;;;;;;;;;;10.10;19.60;;;;;;10352872;28;86521;-49
2022/04/15 08:46:02;;;;;;;;;;;10.20;23.00;;;;;;10369242;28;84289;-47
2022/04/15 08:51:02;;;;;;;;;;;10.30;25.40;;;;;;10370975;28;84094;-47
2022/04/15 08:56:03;;;;;;;;;;;10.40;16.60;;;;;;10370368;28;84352;-47
2022/04/15 09:01:06;;;;;;;;;;;10.40;9.70;;;;;;10352370;28;85945;-47
2022/04/15 09:06:16;;;;;;;;;;;10.20;18.80;;;;;;10351241;28;84818;-51
2022/04/15 09:11:16;;;;;;;;;;;10.20;30.30;;;;;;10370337;28;84123;-49
2022/04/15 09:16:17;;;;;;;;;;;10.20;34.40;;;;;;10350618;28;87778;-47
2022/04/15 09:21:19;;;;;;;;;;;10.30;31.70;;;;;;10369676;28;84104;-46
2022/04/15 09:26:23;;;;;;;;;;;10.30;1.00;;;;;;10368240;28;85067;-49
2022/04/15 09:31:24;;;;;;;;;;;10.30;1.00;;;;;;10369299;28;84913;-49
2022/04/15 09:36:29;;;;;;;;;;;10.50;1.00;;;;;;10368286;28;84111;-48
2022/04/15 09:41:30;;;;;;;;;;;10.60;1.00;;;;;;10350483;28;86848;-51
2022/04/15 09:46:31;;;;;;;;;;;10.70;1.00;;;;;;10350107;28;85033;-49
2022/04/15 09:51:39;;;;;;;;;;;10.70;1.00;;;;;;10368864;28;84009;-50
2022/04/15 09:56:42;;;;;;;;;;;10.70;1.00;;;;;;10367112;28;85138;-48
2022/04/15 10:01:46;;;;;;;;;;;10.80;1.00;;;;;;10369027;28;85081;-47
2022/04/15 10:06:47;;;;;;;;;;;11.00;1.00;;;;;;10367618;28;85303;-49
2022/04/15 10:11:48;;;;;;;;;;;11.20;1.00;;;;;;10350839;28;85033;-48
2022/04/15 10:16:48;;;;;;;;;;;11.30;1.00;;;;;;10367247;28;84090;-47
2022/04/15 10:21:50;;;;;;;;;;;11.30;1.00;;;;;;10367388;28;84248;-46
2022/04/15 10:26:56;;;;;;;;;;;11.40;1.00;;;;;;10349595;28;86870;-46
2022/04/15 10:32:09;;;;;;;;;;;11.60;1.00;;;;;;10350583;28;85994;-44
2022/04/15 10:37:10;;;;;;;;;;;11.70;1.00;;;;;;10350931;28;86090;-47
2022/04/15 10:42:16;;;;;;;;;;;11.70;1.00;;;;;;10351024;28;84060;-47
2022/04/15 10:47:17;;;;;;;;;;;11.80;1.00;;;;;;10368789;28;85085;-47
2022/04/15 10:52:21;;;;;;;;;;;11.80;1.00;;;;;;10368698;28;85043;-47
2022/04/15 10:57:22;;;;;;;;;;;11.90;1.00;;;;;;10369234;28;84258;-47
2022/04/15 11:02:24;;;;;;;;;;;11.90;1.00;;;;;;10373961;28;85234;-48
2022/04/15 11:07:26;;;;;;;;;;;11.90;1.00;;;;;;10354519;28;85763;-49
2022/04/15 11:12:32;;;;;;;;;;;11.90;1.00;;;;;;10373293;28;84184;-48
2022/04/15 11:17:39;;;;;;;;;;;12.00;1.00;;;;;;10373097;28;84013;-47
2022/04/15 11:22:40;;;;;;;;;;;12.10;1.00;;;;;;10373939;28;84068;-47
2022/04/15 11:27:41;;;;;;;;;;;12.10;1.00;;;;;;10373795;28;84005;-50
2022/04/15 11:32:51;;;;;;;;;;;12.20;1.00;;;;;;10374381;28;84970;-48
2022/04/15 11:37:54;;;;;;;;;;;12.30;1.00;;;;;;10355246;28;84238;-47
2022/04/15 11:42:55;;;;;;;;;;;12.20;1.00;;;;;;10374569;28;84956;-47
2022/04/15 11:48:13;;;;;;;;;;;12.20;1.00;;;;;;10374088;28;84926;-47
2022/04/15 11:53:13;;;;;;;;;;;12.30;1.00;;;;;;10373187;28;84948;-47
2022/04/15 11:58:14;;;;;;;;;;;12.40;1.00;;;;;;10372822;28;84448;-45
2022/04/15 12:03:15;;;;;;;;;;;12.40;1.00;;;;;;10373673;28;84921;-45
2022/04/15 12:08:16;;;;;;;;;;;12.40;1.00;;;;;;10354264;28;85098;-47
2022/04/15 12:13:17;;;;;;;;;;;12.60;1.00;;;;;;10373060;28;85064;-46
2022/04/15 12:18:18;;;;;;;;;;;12.60;1.00;;;;;;10354087;28;84804;-47
2022/04/15 12:23:18;;;;;;;;;;;12.50;1.00;;;;;;10371998;28;85067;-47
2022/04/15 12:33:45;;;;;;;;;;;12.70;1.00;;;;;;10372438;28;84702;-45
2022/04/15 12:39:03;;;;;;;;;;;13.00;1.00;;;;;;10372401;28;84384;-47
2022/04/15 12:44:16;;;;;;;;;;;13.10;1.00;;;;;;10371440;28;84951;-45
2022/04/15 12:49:23;;;;;;;;;;;13.30;1.00;;;;;;10352710;28;84258;-48
2022/04/15 12:54:25;;;;;;;;;;;13.10;1.00;;;;;;10371864;28;84230;-46
2022/04/15 12:59:26;;;;;;;;;;;13.20;1.00;;;;;;10370610;28;84139;-45
2022/04/15 13:04:27;;;;;;;;;;;13.40;1.00;;;;;;10369702;28;84885;-49
2022/04/15 13:09:27;;;;;;;;;;;13.20;1.00;;;;;;10370329;28;84813;-46
2022/04/15 13:14:28;;;;;;;;;;;13.00;1.00;;;;;;10370452;28;84231;-48
2022/04/15 13:19:29;;;;;;;;;;;13.00;1.00;;;;;;10351367;28;85316;-48
2022/04/15 13:24:29;;;;;;;;;;;12.90;1.00;;;;;;10370171;28;84089;-48
2022/04/15 13:29:32;;;;;;;;;;;12.80;1.00;;;;;;10370044;28;84872;-45
2022/04/15 13:34:33;;;;;;;;;;;12.70;1.00;;;;;;10369390;28;85970;-47
2022/04/15 13:39:37;;;;;;;;;;;12.80;1.00;;;;;;10369788;28;84778;-48
2022/04/15 13:44:37;;;;;;;;;;;12.70;1.00;;;;;;10369004;28;84922;-48
2022/04/15 13:49:38;;;;;;;;;;;12.90;1.00;;;;;;10368750;28;84270;-47
2022/04/15 14:00:02;;;;;;;;;;;13.00;1.00;;;;;;10369768;28;84206;-45
2022/04/15 14:05:04;;;;;;;;;;;13.40;1.00;;;;;;10351214;28;85515;-46
2022/04/15 14:10:05;;;;;;;;;;;13.70;1.00;;;;;;10368282;28;84337;-46
2022/04/15 14:15:06;;;;;;;;;;;13.40;1.00;;;;;;10351248;28;86033;-48
2022/04/15 14:20:08;;;;;;;;;;;13.10;1.00;;;;;;10350677;28;85193;-48
2022/04/15 14:25:09;;;;;;;;;;;12.90;1.00;;;;;;10414936;22;84977;-46
2022/04/15 14:30:10;;;;;;;;;;;12.70;1.00;;;;;;10412320;28;85021;-47
2022/04/15 14:35:11;;;;;;;;;;;12.70;1.00;;;;;;10398512;28;84771;-47
2022/04/15 14:40:12;;;;;;;;;;;12.50;1.00;;;;;;10376892;28;84411;-46
2022/04/15 14:45:18;;;;;;;;;;;12.30;1.00;;;;;;10376283;28;84266;-52
2022/04/15 14:50:19;;;;;;;;;;;12.30;1.00;;;;;;10376219;28;84150;-54
2022/04/15 14:55:19;;;;;;;;;;;12.30;1.00;;;;;;10376477;28;84144;-53
2022/04/15 15:00:20;;;;;;;;;;;12.10;1.00;;;;;;10377363;28;85069;-46
2022/04/15 15:05:20;;;;;;;;;;;12.00;1.00;;;;;;10375392;28;84083;-55
2022/04/15 15:10:21;;;;;;;;;;;12.10;1.00;;;;;;10375838;28;84241;-46
2022/04/15 15:15:21;;;;;;;;;;;12.20;1.00;;;;;;10394314;28;84857;-48
2022/04/15 15:20:22;;;;;;;;;;;12.20;1.00;;;;;;10416238;28;85174;-49
2022/04/15 15:30:45;;;;;;;;;;;12.40;1.00;;;;;;10405190;28;84781;-49
2022/04/15 15:35:48;;;;;;;;;;;12.70;1.00;;;;;;10373714;28;84810;-51
2022/04/15 15:40:52;;;;;;;;;;;12.60;1.00;;;;;;10374481;28;84934;-47
2022/04/15 15:45:53;;;;;;;;;;;12.60;1.00;;;;;;10373677;28;84133;-48
2022/04/15 15:50:53;;;;;;;;;;;12.50;1.00;;;;;;10415980;28;84515;-48
2022/04/15 15:55:54;;;;;;;;;;;12.30;1.00;;;;;;10411727;28;84931;-47
2022/04/15 16:00:54;;;;;;;;;;;12.40;1.00;;;;;;10415324;28;85048;-51
2022/04/15 16:05:55;;;;;;;;;;;12.60;1.00;;;;;;10415349;28;84017;-46
2022/04/15 16:10:55;;;;;;;;;;;12.50;1.00;;;;;;10385029;28;84028;-45
2022/04/15 16:15:56;;;;;;;;;;;12.60;1.00;;;;;;10372661;28;84958;-46
2022/04/15 16:20:56;;;;;;;;;;;12.40;1.00;;;;;;10355261;28;84133;-47
2022/04/15 16:25:57;;;;;;;;;;;12.30;1.00;;;;;;10372029;28;85401;-48
2022/04/15 16:30:57;;;;;;;;;;;12.30;1.00;;;;;;10415151;28;84944;-44
2022/04/15 16:35:58;;;;;;;;;;;12.20;1.00;;;;;;10413914;28;85309;-52
2022/04/15 16:41:00;;;;;;;;;;;12.30;1.00;;;;;;10410215;28;84024;-52
2022/04/15 16:46:00;;;;;;;;;;;12.20;1.00;;;;;;10353473;28;84706;-48
2022/04/15 16:51:01;;;;;;;;;;;12.30;1.00;;;;;;10353373;28;85673;-48
2022/04/15 17:01:21;;;;;;;;;;;12.20;1.00;;;;;;10372133;28;84895;-47
2022/04/15 17:06:25;;;;;;;;;;;12.00;1.00;;;;;;10370173;28;84922;-49
2022/04/15 17:11:26;;;;;;;;;;;11.90;1.00;;;;;;10370979;28;84979;-48
2022/04/15 17:16:28;;;;;;;;;;;11.80;1.00;;;;;;10370513;28;85832;-48
2022/04/15 17:21:29;;;;;;;;;;;11.90;1.00;;;;;;10352951;28;84906;-47
2022/04/15 17:26:29;;;;;;;;;;;11.90;1.00;;;;;;10350684;28;85851;-45
2022/04/15 17:31:30;;;;;;;;;;;11.90;1.00;;;;;;10361390;28;86871;-48
2022/04/15 17:36:31;;;;;;;;;;;12.00;1.00;;;;;;10409100;28;84932;-49
2022/04/15 17:41:31;;;;;;;;;;;11.90;1.00;;;;;;10410668;28;84361;-47
2022/04/15 17:46:33;;;;;;;;;;;11.80;1.00;;;;;;10409536;28;84132;-54
2022/04/15 17:51:34;;;;;;;;;;;11.70;1.00;;;;;;10408639;28;84433;-46
2022/04/15 17:56:35;;;;;;;;;;;11.80;1.00;;;;;;10389361;28;85041;-47
2022/04/15 18:01:36;;;;;;;;;;;11.60;1.00;;;;;;10409786;28;84077;-44
2022/04/15 18:06:38;;;;;;;;;;;11.50;1.00;;;;;;10409048;28;85214;-45
2022/04/15 18:11:38;;;;;;;;;;;11.40;1.00;;;;;;10375151;28;84758;-46
2022/04/15 18:16:39;;;;;;;;;;;11.30;1.00;;;;;;10367885;28;84014;-44
2022/04/15 18:21:39;;;;;;;;;;;11.30;1.00;;;;;;10369106;28;84210;-48
2022/04/15 18:26:40;;;;;;;;;;;11.30;1.00;;;;;;10374891;28;85810;-45
2022/04/15 18:31:41;;;;;;;;;;;11.20;1.00;;;;;;10410814;28;84692;-45
2022/04/15 18:36:41;;;;;;;;;;;11.00;1.00;;;;;;10391382;28;84085;-45
2022/04/15 18:41:43;;;;;;;;;;;11.00;1.00;;;;;;10407344;28;84284;-46
2022/04/15 18:46:43;;;;;;;;;;;10.80;1.00;;;;;;10390467;28;84086;-48
2022/04/15 18:57:05;;;;;;;;;;;10.60;1.00;;;;;;10405276;28;85998;-46
2022/04/15 19:02:09;;;;;;;;;;;10.50;1.00;;;;;;10390398;28;85661;-41
2022/04/15 19:07:11;;;;;;;;;;;10.40;1.00;;;;;;10407602;28;84241;-46
2022/04/15 19:12:11;;;;;;;;;;;10.30;1.00;;;;;;10408699;28;84757;-44
2022/04/15 19:17:12;;;;;;;;;;;10.30;1.00;;;;;;10409654;28;84398;-45
2022/04/15 19:22:13;;;;;;;;;;;10.20;1.00;;;;;;10415804;28;84143;-54
2022/04/15 19:27:14;;;;;;;;;;;10.10;1.00;;;;;;10413904;28;84271;-48
2022/04/15 19:32:15;;;;;;;;;;;10.00;1.00;;;;;;10393591;28;84036;-50
2022/04/15 19:37:16;;;;;;;;;;;10.00;1.00;;;;;;10372246;28;85157;-48
2022/04/15 19:42:16;;;;;;;;;;;9.80;1.00;;;;;;10373226;28;84870;-48
2022/04/15 19:47:17;;;;;;;;;;;9.80;1.00;;;;;;10364510;28;84110;-48
2022/04/15 19:52:18;;;;;;;;;;;9.80;1.00;;;;;;10414273;28;84019;-47
2022/04/15 20:02:37;;;;;;;;;;;9.60;1.00;;;;;;10372863;28;84959;-49
2022/04/15 20:07:38;;;;;;;;;;;9.50;1.00;;;;;;10371887;28;84772;-47
2022/04/15 20:12:39;;;;;;;;;;;9.50;1.00;;;;;;10413507;28;84968;-48
2022/04/15 20:17:39;;;;;;;;;;;9.40;1.00;;;;;;10412798;28;84189;-50
2022/04/15 20:22:40;;;;;;;;;;;9.40;1.00;;;;;;10413969;28;84274;-51
2022/04/15 20:27:40;;;;;;;;;;;9.30;10.80;;;;;;10392160;22;84143;-48
2022/04/15 20:32:41;;;;;;;;;;;9.20;16.20;;;;;;10372591;28;84196;-43
2022/04/15 20:37:47;;;;;;;;;;;9.10;40.30;;;;;;10316882;28;84090;-45
2022/04/15 20:42:51;;;;;;;;;;;9.10;57.00;;;;;;10330084;28;84270;-48
2022/04/15 20:47:52;;;;;;;;;;;9.00;67.90;;;;;;10329581;28;84903;-47
2022/04/15 20:52:52;;;;;;;;;;;9.00;94.70;;;;;;10330712;28;84777;-46
2022/04/15 20:57:53;;;;;;;;;;;9.00;94.70;;;;;;10311586;28;87982;-48
2022/04/15 21:02:53;;;;;;;;;;;8.90;98.20;;;;;;10330788;28;84246;-47
2022/04/15 21:07:54;;;;;;;;;;;8.90;90.90;;;;;;10328438;28;84140;-46
2022/04/15 21:12:54;;;;;;;;;;;8.80;99.90;;;;;;10329865;28;84898;-50
2022/04/15 21:17:55;;;;;;;;;;;8.80;99.90;;;;;;10310042;28;85965;-47
2022/04/15 21:22:56;;;;;;;;;;;8.70;99.90;;;;;;10329064;28;85252;-49
2022/04/15 21:27:56;;;;;;;;;;;8.70;99.90;;;;;;10327582;28;84967;-47
2022/04/15 21:32:57;;;;;;;;;;;8.60;99.90;;;;;;10329086;28;85258;-47
2022/04/15 21:37:57;;;;;;;;;;;8.60;99.90;;;;;;10327914;28;84222;-47
2022/04/15 21:42:58;;;;;;;;;;;8.50;99.90;;;;;;10328332;28;84132;-47
2022/04/15 21:47:59;;;;;;;;;;;8.40;99.90;;;;;;10327545;28;84167;-47
2022/04/15 21:52:59;;;;;;;;;;;8.40;99.90;;;;;;10328660;28;84205;-48
2022/04/15 21:58:00;;;;;;;;;;;8.40;99.90;;;;;;10326821;28;84837;-48
2022/04/15 22:03:02;;;;;;;;;;;8.40;99.90;;;;;;10327639;28;85723;-49
2022/04/15 22:08:02;;;;;;;;;;;8.40;99.90;;;;;;10325246;28;86161;-45
2022/04/15 22:13:03;;;;;;;;;;;8.30;99.90;;;;;;10328358;28;84010;-45
2022/04/15 22:18:03;;;;;;;;;;;8.30;99.90;;;;;;10326490;28;84776;-50
2022/04/15 22:23:04;;;;;;;;;;;8.20;99.90;;;;;;10327524;28;83979;-47
2022/04/15 22:28:05;;;;;;;;;;;8.20;99.90;;;;;;10323913;28;85876;-47
2022/04/15 22:33:07;;;;;;;;;;;8.20;99.90;;;;;;10326997;28;84867;-46
2022/04/15 22:38:08;;;;;;;;;;;8.20;99.90;;;;;;10326354;28;85376;-46
2022/04/15 22:43:10;;;;;;;;;;;8.10;99.90;;;;;;10308519;28;86007;-46
2022/04/15 22:48:20;;;;;;;;;;;8.00;99.90;;;;;;10326196;28;85299;-46
2022/04/15 22:53:25;;;;;;;;;;;7.90;99.90;;;;;;10330673;28;84167;-48
2022/04/15 22:58:26;;;;;;;;;;;7.90;99.90;;;;;;10332740;28;84294;-49
2022/04/15 23:03:26;;;;;;;;;;;7.90;99.90;;;;;;10333909;28;85262;-47
2022/04/15 23:08:27;;;;;;;;;;;7.90;99.90;;;;;;10333438;28;84177;-47
2022/04/15 23:13:27;;;;;;;;;;;7.80;99.90;;;;;;10333476;28;84133;-47
2022/04/15 23:18:29;;;;;;;;;;;7.80;99.90;;;;;;10331609;28;84248;-46
2022/04/15 23:23:34;;;;;;;;;;;7.70;99.90;;;;;;10333002;28;84741;-48
2022/04/15 23:28:34;;;;;;;;;;;7.80;99.90;;;;;;10331847;28;84856;-46
2022/04/15 23:33:35;;;;;;;;;;;7.80;99.90;;;;;;10331316;28;85068;-48
2022/04/15 23:38:36;;;;;;;;;;;7.70;99.90;;;;;;10330796;28;84146;-51
2022/04/15 23:43:36;;;;;;;;;;;7.60;99.90;;;;;;10331149;28;85070;-52
2022/04/15 23:48:38;;;;;;;;;;;7.60;99.90;;;;;;10330624;28;84094;-47
2022/04/15 23:53:39;;;;;;;;;;;7.60;99.90;;;;;;10312757;28;86880;-48
2022/04/15 23:58:43;;;;;;;;;;;7.50;99.90;;;;;;10329436;28;84486;-47
